Time;durP1;ratioP1;P1;durP2;ratioP2;P2;SDS_P1;SDS_P2;PMS_P1;PMS_P2;Temp;Humidity;BMP_temperature;BMP_pressure;BME280_temperature;BME280_humidity;BME280_pressure;Samples;Min_cycle;Max_cycle;Signal;HPM_P1;HPM_P2
2022/07/12 00:02:06;;;;;;;3.60;3.40;;;;;;;;;;5044645;28;20273;-79
2022/07/12 00:04:34;;;;;;;3.90;3.60;;;;;;;;;;5046281;28;20256;-78
2022/07/12 00:07:01;;;;;;;3.60;3.33;;;;;;;;;;5041897;28;20222;-77
2022/07/12 00:09:28;;;;;;;3.60;3.30;;;;;;;;;;5050332;28;20202;-78
2022/07/12 00:11:57;;;;;;;3.67;3.37;;;;;;;;;;5047812;28;20208;-77
2022/07/12 00:14:24;;;;;;;4.07;3.70;;;;;;;;;;5045046;28;20229;-79
2022/07/12 00:16:52;;;;;;;4.00;3.70;;;;;;;;;;5045190;28;20298;-77
2022/07/12 00:19:19;;;;;;;4.40;3.50;;;;;;;;;;5024323;28;20793;-77
2022/07/12 00:21:47;;;;;;;5.37;3.70;;;;;;;;;;5041280;28;20293;-79
2022/07/12 00:24:14;;;;;;;4.33;3.93;;;;;;;;;;5051154;28;20243;-77
2022/07/12 00:26:41;;;;;;;4.20;3.50;;;;;;;;;;5043369;28;20257;-77
2022/07/12 00:29:09;;;;;;;4.30;3.90;;;;;;;;;;5046571;28;20207;-79
2022/07/12 00:31:36;;;;;;;3.40;3.10;;;;;;;;;;5051013;28;20321;-77
2022/07/12 00:34:03;;;;;;;4.20;3.40;;;;;;;;;;5050001;28;20229;-77
2022/07/12 00:36:31;;;;;;;3.57;3.27;;;;;;;;;;5039618;28;20234;-81
2022/07/12 00:38:58;;;;;;;4.40;3.40;;;;;;;;;;5047312;28;20264;-79
2022/07/12 00:41:25;;;;;;;3.83;3.33;;;;;;;;;;5051050;28;20308;-80
2022/07/12 00:43:53;;;;;;;4.00;3.70;;;;;;;;;;5051839;28;20284;-78
2022/07/12 00:46:22;;;;;;;4.17;3.10;;;;;;;;;;5048495;28;20253;-79
2022/07/12 00:48:50;;;;;;;3.60;3.30;;;;;;;;;;5041057;28;20662;-78
2022/07/12 00:51:18;;;;;;;3.70;3.40;;;;;;;;;;5035675;28;20595;-80
2022/07/12 00:53:46;;;;;;;3.60;3.30;;;;;;;;;;5038758;28;20586;-78
2022/07/12 00:56:14;;;;;;;3.97;3.63;;;;;;;;;;5041554;28;20813;-78
2022/07/12 00:58:41;;;;;;;3.87;3.57;;;;;;;;;;5038061;28;20206;-77
2022/07/12 01:01:09;;;;;;;3.97;3.30;;;;;;;;;;5048370;28;20317;-78
2022/07/12 01:03:37;;;;;;;3.80;3.50;;;;;;;;;;5043748;28;20224;-79
2022/07/12 01:06:04;;;;;;;3.80;3.50;;;;;;;;;;5040636;28;20701;-77
2022/07/12 01:08:32;;;;;;;3.97;3.67;;;;;;;;;;5048940;28;20297;-80
2022/07/12 01:11:00;;;;;;;4.03;3.43;;;;;;;;;;5045491;28;20335;-80
2022/07/12 01:13:27;;;;;;;3.73;3.43;;;;;;;;;;5020409;28;20201;-77
2022/07/12 01:15:55;;;;;;;3.97;3.60;;;;;;;;;;5037771;28;20292;-79
2022/07/12 01:18:22;;;;;;;3.53;3.30;;;;;;;;;;5042010;28;20210;-79
2022/07/12 01:20:50;;;;;;;4.00;3.67;;;;;;;;;;5041065;28;20218;-79
2022/07/12 01:23:17;;;;;;;4.57;3.97;;;;;;;;;;5037310;28;20297;-78
2022/07/12 01:25:44;;;;;;;5.90;5.30;;;;;;;;;;5043786;28;20659;-77
2022/07/12 01:28:12;;;;;;;5.90;4.77;;;;;;;;;;5047079;28;20265;-78
2022/07/12 01:30:41;;;;;;;5.47;4.17;;;;;;;;;;5051710;28;20233;-76
2022/07/12 01:33:08;;;;;;;4.57;4.10;;;;;;;;;;5045456;28;20203;-77
2022/07/12 01:35:36;;;;;;;4.47;4.07;;;;;;;;;;5035395;28;20237;-77
2022/07/12 01:38:03;;;;;;;4.57;4.13;;;;;;;;;;5047064;28;20245;-77
2022/07/12 01:40:30;;;;;;;4.43;3.73;;;;;;;;;;5048767;28;20234;-80
2022/07/12 01:42:58;;;;;;;4.13;3.83;;;;;;;;;;5031427;28;20229;-77
2022/07/12 01:45:25;;;;;;;3.83;3.53;;;;;;;;;;5049906;28;20909;-81
2022/07/12 01:47:52;;;;;;;4.60;3.60;;;;;;;;;;5044601;28;20310;-77
2022/07/12 01:50:19;;;;;;;7.00;4.23;;;;;;;;;;5048074;28;20288;-78
2022/07/12 01:52:47;;;;;;;4.60;4.20;;;;;;;;;;5030485;28;20297;-77
2022/07/12 01:55:14;;;;;;;4.50;4.10;;;;;;;;;;5048604;28;20281;-76
2022/07/12 01:57:43;;;;;;;4.83;4.40;;;;;;;;;;5045232;28;20225;-75
2022/07/12 02:00:14;;;;;;;4.90;3.97;;;;;;;;;;5030850;28;20254;-81
2022/07/12 02:02:41;;;;;;;4.43;3.67;;;;;;;;;;5041020;28;20214;-79
2022/07/12 02:05:12;;;;;;;3.63;3.33;;;;;;;;;;5042091;28;20294;-77
2022/07/12 02:07:40;;;;;;;4.13;3.67;;;;;;;;;;5042724;28;20280;-79
2022/07/12 02:10:08;;;;;;;3.83;3.53;;;;;;;;;;5018649;28;20310;-80
2022/07/12 02:12:36;;;;;;;5.33;4.37;;;;;;;;;;5038027;28;20229;-79
2022/07/12 02:15:05;;;;;;;4.73;4.17;;;;;;;;;;5039952;28;20228;-79
2022/07/12 02:17:32;;;;;;;5.10;4.70;;;;;;;;;;5033510;28;20210;-77
2022/07/12 02:20:00;;;;;;;5.63;5.13;;;;;;;;;;5037357;28;20265;-78
2022/07/12 02:22:29;;;;;;;5.20;4.80;;;;;;;;;;5020237;28;20241;-76
2022/07/12 02:24:56;;;;;;;6.10;4.80;;;;;;;;;;5032215;28;20716;-78
2022/07/12 02:27:23;;;;;;;5.50;4.67;;;;;;;;;;5035863;28;20272;-80
2022/07/12 02:29:51;;;;;;;4.63;4.23;;;;;;;;;;5029314;28;20245;-79
2022/07/12 02:32:18;;;;;;;3.90;3.60;;;;;;;;;;5044551;28;20194;-80
2022/07/12 02:34:46;;;;;;;4.87;4.47;;;;;;;;;;5048022;28;20203;-78
2022/07/12 02:37:14;;;;;;;4.33;4.03;;;;;;;;;;5044539;28;20202;-80
2022/07/12 02:39:42;;;;;;;4.70;4.30;;;;;;;;;;5026430;28;20238;-79
2022/07/12 02:42:09;;;;;;;4.30;4.00;;;;;;;;;;5042842;28;20623;-77
2022/07/12 02:44:36;;;;;;;4.33;3.93;;;;;;;;;;5045894;28;20242;-78
2022/07/12 02:47:04;;;;;;;4.60;4.20;;;;;;;;;;5045418;28;20225;-77
2022/07/12 02:49:31;;;;;;;4.67;4.27;;;;;;;;;;5027803;28;20198;-78
2022/07/12 02:51:58;;;;;;;4.90;4.50;;;;;;;;;;5026764;28;20282;-79
2022/07/12 02:54:25;;;;;;;4.83;4.40;;;;;;;;;;5042079;28;20211;-78
2022/07/12 02:56:53;;;;;;;4.57;4.20;;;;;;;;;;5042268;28;20253;-79
2022/07/12 02:59:21;;;;;;;3.80;3.50;;;;;;;;;;5043733;28;20746;-79
2022/07/12 03:01:48;;;;;;;4.87;4.10;;;;;;;;;;5043667;28;20198;-80
2022/07/12 03:04:15;;;;;;;6.03;4.33;;;;;;;;;;5026525;28;20203;-78
2022/07/12 03:06:43;;;;;;;4.30;3.90;;;;;;;;;;5042061;28;20231;-79
2022/07/12 03:09:10;;;;;;;3.97;3.60;;;;;;;;;;5044860;28;20203;-76
2022/07/12 03:11:39;;;;;;;3.73;3.43;;;;;;;;;;5039128;28;20606;-76
2022/07/12 03:14:06;;;;;;;2.90;2.70;;;;;;;;;;5047059;28;20214;-78
2022/07/12 03:16:34;;;;;;;3.40;3.20;;;;;;;;;;5044161;28;20296;-79
2022/07/12 03:19:01;;;;;;;4.20;3.80;;;;;;;;;;5038064;28;20287;-77
2022/07/12 03:21:28;;;;;;;4.40;4.00;;;;;;;;;;5020713;28;20781;-78
2022/07/12 03:23:56;;;;;;;4.00;3.70;;;;;;;;;;5042623;28;20662;-80
2022/07/12 03:26:23;;;;;;;4.37;3.60;;;;;;;;;;5044926;28;20229;-78
2022/07/12 03:28:51;;;;;;;3.97;3.67;;;;;;;;;;5042475;28;20277;-81
2022/07/12 03:31:18;;;;;;;4.17;3.77;;;;;;;;;;5044545;28;20268;-79
2022/07/12 03:33:46;;;;;;;3.83;3.53;;;;;;;;;;5040358;28;21471;-77
2022/07/12 03:36:13;;;;;;;5.63;4.23;;;;;;;;;;5040225;28;20229;-79
2022/07/12 03:38:42;;;;;;;5.53;4.93;;;;;;;;;;5039811;28;21463;-79
2022/07/12 03:41:09;;;;;;;5.33;4.50;;;;;;;;;;5047944;28;20225;-79
2022/07/12 03:43:36;;;;;;;4.60;4.20;;;;;;;;;;5048631;28;20238;-78
2022/07/12 03:46:04;;;;;;;5.60;4.27;;;;;;;;;;5037984;28;20223;-81
2022/07/12 03:48:31;;;;;;;5.40;4.90;;;;;;;;;;5042762;28;20697;-79
2022/07/12 03:50:59;;;;;;;5.57;5.07;;;;;;;;;;5029343;28;20230;-81
2022/07/12 03:53:26;;;;;;;6.20;5.70;;;;;;;;;;5046928;28;20201;-78
2022/07/12 03:55:53;;;;;;;5.33;4.93;;;;;;;;;;5042804;28;20221;-77
2022/07/12 03:58:20;;;;;;;5.40;4.90;;;;;;;;;;5044026;28;20332;-75
2022/07/12 04:00:47;;;;;;;6.70;4.70;;;;;;;;;;5044883;28;20252;-76
2022/07/12 04:03:18;;;;;;;6.80;5.00;;;;;;;;;;5042838;28;20230;-78
2022/07/12 04:05:45;;;;;;;5.20;4.70;;;;;;;;;;5041836;28;20233;-78
2022/07/12 04:08:13;;;;;;;4.77;4.37;;;;;;;;;;5045196;28;20253;-80
2022/07/12 04:10:40;;;;;;;5.20;4.80;;;;;;;;;;5029583;28;20222;-77
2022/07/12 04:13:07;;;;;;;5.20;4.23;;;;;;;;;;5046676;28;20198;-80
2022/07/12 04:15:34;;;;;;;5.77;4.47;;;;;;;;;;5044208;28;20202;-76
2022/07/12 04:18:02;;;;;;;4.60;4.20;;;;;;;;;;5044593;28;20206;-78
2022/07/12 04:20:29;;;;;;;4.63;4.23;;;;;;;;;;5047446;28;20249;-79
2022/07/12 04:22:57;;;;;;;5.40;4.73;;;;;;;;;;5043253;28;20256;-77
2022/07/12 04:25:25;;;;;;;4.90;4.50;;;;;;;;;;5030179;28;20204;-76
2022/07/12 04:27:53;;;;;;;4.47;4.07;;;;;;;;;;5040022;28;20820;-78
2022/07/12 04:30:20;;;;;;;4.67;4.27;;;;;;;;;;5039606;28;20332;-77
2022/07/12 04:32:49;;;;;;;4.47;4.17;;;;;;;;;;5041625;28;20194;-79
2022/07/12 04:35:17;;;;;;;4.63;4.23;;;;;;;;;;5049625;28;20234;-75
2022/07/12 04:37:44;;;;;;;5.63;5.03;;;;;;;;;;5050653;28;20251;-77
2022/07/12 04:40:12;;;;;;;5.47;4.97;;;;;;;;;;5047286;28;20230;-75
2022/07/12 04:42:39;;;;;;;6.23;4.80;;;;;;;;;;5033065;28;20237;-76
2022/07/12 04:45:07;;;;;;;5.40;4.90;;;;;;;;;;5051831;28;20205;-78
2022/07/12 04:47:37;;;;;;;9.60;5.27;;;;;;;;;;5049219;28;20226;-78
2022/07/12 04:50:07;;;;;;;6.47;5.47;;;;;;;;;;5051068;28;20301;-79
2022/07/12 04:52:35;;;;;;;6.13;5.53;;;;;;;;;;5037522;28;20285;-77
2022/07/12 04:55:02;;;;;;;5.70;5.20;;;;;;;;;;5039797;28;20198;-78
2022/07/12 04:57:29;;;;;;;6.00;5.50;;;;;;;;;;5045563;28;20233;-79
2022/07/12 04:59:57;;;;;;;5.90;5.40;;;;;;;;;;5046695;28;20784;-78
2022/07/12 05:02:25;;;;;;;6.43;5.70;;;;;;;;;;5031052;28;20210;-77
2022/07/12 05:04:53;;;;;;;5.70;5.10;;;;;;;;;;5045549;28;20280;-78
2022/07/12 05:07:20;;;;;;;6.20;5.60;;;;;;;;;;5040398;28;20325;-76
2022/07/12 05:09:47;;;;;;;6.43;5.83;;;;;;;;;;5046158;28;20309;-78
2022/07/12 05:12:14;;;;;;;8.30;7.00;;;;;;;;;;5048439;28;20195;-75
2022/07/12 05:14:42;;;;;;;7.30;6.53;;;;;;;;;;5048733;28;20233;-75
2022/07/12 05:17:09;;;;;;;6.73;6.03;;;;;;;;;;5060076;28;20237;-76
2022/07/12 05:19:39;;;;;;;6.77;6.17;;;;;;;;;;5046921;28;20206;-77
2022/07/12 05:22:07;;;;;;;7.03;6.33;;;;;;;;;;5040672;28;20596;-79
2022/07/12 05:24:34;;;;;;;7.30;6.40;;;;;;;;;;5039695;28;20226;-78
2022/07/12 05:27:01;;;;;;;7.60;7.00;;;;;;;;;;5046850;28;20683;-79
2022/07/12 05:29:28;;;;;;;6.60;6.00;;;;;;;;;;5055941;28;20236;-78
2022/07/12 05:31:57;;;;;;;6.03;5.43;;;;;;;;;;5052415;28;20684;-77
2022/07/12 05:34:24;;;;;;;4.40;4.00;;;;;;;;;;5046928;28;20344;-80
2022/07/12 05:36:51;;;;;;;4.57;4.28;;;;;;;;;;5045700;28;20278;-80
2022/07/12 05:39:21;;;;;;;3.75;3.45;;;;;;;;;;5043715;28;20286;-77
2022/07/12 05:41:48;;;;;;;3.92;3.60;;;;;;;;;;5049222;28;20292;-78
2022/07/12 05:44:18;;;;;;;3.67;3.40;;;;;;;;;;5068756;28;20206;-76
2022/07/12 05:46:46;;;;;;;3.40;3.03;;;;;;;;;;5050563;28;20224;-80
2022/07/12 05:49:14;;;;;;;5.03;3.40;;;;;;;;;;5050941;28;20282;-80
2022/07/12 05:54:27;;;;;;;3.90;3.60;;;;;;;;;;5043719;28;20242;-76
2022/07/12 05:56:54;;;;;;;3.42;3.22;;;;;;;;;;5047196;28;20297;-79
2022/07/12 05:59:21;;;;;;;4.40;3.00;;;;;;;;;;5026892;28;20217;-77
2022/07/12 06:01:48;;;;;;;4.00;3.70;;;;;;;;;;5044958;28;20256;-79
2022/07/12 06:04:16;;;;;;;2.60;2.40;;;;;;;;;;5049138;28;20277;-74
2022/07/12 06:06:43;;;;;;;3.10;2.90;;;;;;;;;;5043874;28;20234;-79
2022/07/12 06:09:10;;;;;;;3.08;2.78;;;;;;;;;;5039681;28;20322;-80
2022/07/12 06:11:40;;;;;;;2.50;2.30;;;;;;;;;;5040652;28;20230;-78
2022/07/12 06:14:07;;;;;;;2.60;2.40;;;;;;;;;;5046100;28;20632;-78
2022/07/12 06:16:35;;;;;;;2.80;2.60;;;;;;;;;;5046121;28;20713;-79
2022/07/12 06:19:02;;;;;;;3.05;2.85;;;;;;;;;;5046708;28;20727;-76
2022/07/12 06:21:30;;;;;;;2.90;2.47;;;;;;;;;;5045175;28;20276;-77
2022/07/12 06:23:57;;;;;;;3.30;3.00;;;;;;;;;;5045268;28;20214;-78
2022/07/12 06:26:25;;;;;;;3.20;3.00;;;;;;;;;;5039396;28;20293;-77
2022/07/12 06:28:52;;;;;;;3.13;2.92;;;;;;;;;;5039064;28;20257;-76
2022/07/12 06:31:19;;;;;;;5.15;3.20;;;;;;;;;;5039345;28;20344;-76
2022/07/12 06:33:47;;;;;;;4.82;3.22;;;;;;;;;;5041500;28;20203;-75
2022/07/12 06:36:14;;;;;;;4.80;3.35;;;;;;;;;;5040290;28;20246;-76
2022/07/12 06:38:41;;;;;;;4.32;3.95;;;;;;;;;;5040911;28;20245;-75
2022/07/12 06:41:16;;;;;;;5.63;4.20;;;;;;;;;;5043595;28;20865;-75
2022/07/12 06:43:43;;;;;;;4.25;3.95;;;;;;;;;;5020779;28;20224;-79
2022/07/12 06:46:10;;;;;;;3.75;3.45;;;;;;;;;;5030132;28;20300;-78
2022/07/12 06:48:37;;;;;;;3.90;3.60;;;;;;;;;;5040811;28;20232;-76
2022/07/12 06:51:05;;;;;;;3.97;3.63;;;;;;;;;;5035640;28;20318;-78
2022/07/12 06:53:32;;;;;;;3.85;3.53;;;;;;;;;;5028788;28;20226;-76
2022/07/12 06:56:00;;;;;;;4.68;4.28;;;;;;;;;;5040057;28;20290;-77
2022/07/12 06:58:27;;;;;;;4.38;3.97;;;;;;;;;;5035117;28;20226;-76
2022/07/12 07:00:55;;;;;;;3.70;3.40;;;;;;;;;;5039748;28;20218;-76
2022/07/12 07:03:24;;;;;;;3.67;3.42;;;;;;;;;;5036590;28;20289;-78
2022/07/12 07:05:52;;;;;;;3.30;3.10;;;;;;;;;;5023009;28;21848;-76
2022/07/12 07:08:19;;;;;;;2.83;2.72;;;;;;;;;;5040475;28;20254;-79
2022/07/12 07:10:46;;;;;;;2.88;2.67;;;;;;;;;;5036333;28;20317;-78
2022/07/12 07:13:14;;;;;;;3.38;3.08;;;;;;;;;;5038515;28;20203;-77
2022/07/12 07:15:42;;;;;;;3.85;3.17;;;;;;;;;;5038562;28;20303;-79
2022/07/12 07:18:09;;;;;;;2.65;2.45;;;;;;;;;;5028325;28;20249;-75
2022/07/12 07:20:38;;;;;;;3.13;2.90;;;;;;;;;;5034836;28;20232;-79
2022/07/12 07:23:06;;;;;;;2.92;2.72;;;;;;;;;;5020580;28;20245;-78
2022/07/12 07:25:33;;;;;;;3.28;3.08;;;;;;;;;;5037591;28;20289;-78
2022/07/12 07:28:00;;;;;;;4.57;3.30;;;;;;;;;;5036536;28;20227;-77
2022/07/12 07:33:14;;;;;;;3.55;2.83;;;;;;;;;;5028265;28;20858;-76
2022/07/12 07:35:43;;;;;;;3.17;2.97;;;;;;;;;;5030354;28;20306;-78
2022/07/12 07:38:10;;;;;;;3.35;2.90;;;;;;;;;;5031342;28;20263;-77
2022/07/12 07:40:38;;;;;;;3.45;3.17;;;;;;;;;;5040537;28;20336;-77
2022/07/12 07:43:05;;;;;;;3.65;2.95;;;;;;;;;;5039484;28;20566;-78
2022/07/12 07:45:32;;;;;;;2.80;2.60;;;;;;;;;;5036197;28;20210;-78
2022/07/12 07:48:00;;;;;;;2.80;2.60;;;;;;;;;;5029681;28;20321;-79
2022/07/12 07:50:47;;;;;;;3.28;3.03;;;;;;;;;;5033842;28;20717;-80
2022/07/12 07:53:14;;;;;;;3.15;2.85;;;;;;;;;;5019352;28;20650;-80
2022/07/12 07:55:41;;;;;;;4.28;2.67;;;;;;;;;;5039278;28;20229;-78
2022/07/12 07:58:09;;;;;;;2.72;2.50;;;;;;;;;;5029879;28;20285;-76
2022/07/12 08:00:36;;;;;;;3.30;3.00;;;;;;;;;;5035335;28;20800;-78
2022/07/12 08:03:03;;;;;;;3.38;2.47;;;;;;;;;;5043136;28;20563;-76
2022/07/12 08:05:31;;;;;;;2.83;2.63;;;;;;;;;;5036583;28;20201;-77
2022/07/12 08:07:58;;;;;;;3.25;2.95;;;;;;;;;;5033458;28;20708;-77
2022/07/12 08:10:26;;;;;;;5.07;4.22;;;;;;;;;;5033628;28;20308;-79
2022/07/12 08:12:53;;;;;;;2.85;2.65;;;;;;;;;;5020764;28;20298;-81
2022/07/12 08:15:21;;;;;;;3.25;3.03;;;;;;;;;;5024500;28;20850;-81
2022/07/12 08:17:48;;;;;;;2.50;2.30;;;;;;;;;;5035299;28;20281;-78
2022/07/12 08:20:20;;;;;;;2.47;2.22;;;;;;;;;;5045043;28;20221;-79
2022/07/12 08:23:08;;;;;;;2.47;2.30;;;;;;;;;;5060499;28;20229;-77
2022/07/12 08:25:35;;;;;;;2.85;2.47;;;;;;;;;;5068605;28;20206;-78
2022/07/12 08:28:02;;;;;;;2.65;2.45;;;;;;;;;;5063242;28;20237;-79
2022/07/12 08:30:30;;;;;;;2.85;2.65;;;;;;;;;;5057214;28;20218;-78
2022/07/12 08:32:57;;;;;;;2.80;2.60;;;;;;;;;;5041867;28;20710;-76
2022/07/12 08:35:24;;;;;;;2.47;2.30;;;;;;;;;;5026043;28;20274;-78
2022/07/12 08:37:52;;;;;;;2.90;2.70;;;;;;;;;;5038428;28;20390;-76
2022/07/12 08:40:21;;;;;;;2.60;2.40;;;;;;;;;;5042534;28;20237;-79
2022/07/12 08:42:48;;;;;;;3.80;2.53;;;;;;;;;;5042033;28;20636;-79
2022/07/12 08:45:16;;;;;;;3.40;3.10;;;;;;;;;;5047739;28;20304;-76
2022/07/12 08:47:44;;;;;;;2.70;2.50;;;;;;;;;;5031629;28;20293;-77
2022/07/12 08:50:14;;;;;;;2.80;2.60;;;;;;;;;;5038159;28;20255;-78
2022/07/12 08:52:42;;;;;;;2.75;2.55;;;;;;;;;;5050692;28;20225;-77
2022/07/12 08:55:30;;;;;;;3.47;2.45;;;;;;;;;;5039528;28;20203;-76
2022/07/12 08:57:59;;;;;;;2.95;2.70;;;;;;;;;;5046957;28;20209;-77
2022/07/12 09:00:27;;;;;;;8.00;7.22;;;;;;;;;;5045254;28;20255;-74
2022/07/12 09:03:01;;;;;;;2.80;2.60;;;;;;;;;;5044181;28;20206;-78
2022/07/12 09:05:30;;;;;;;2.78;2.58;;;;;;;;;;5049955;28;20235;-78
2022/07/12 09:08:03;;;;;;;3.13;2.55;;;;;;;;;;5042449;28;20638;-75
2022/07/12 09:10:31;;;;;;;2.40;2.20;;;;;;;;;;5046935;28;20717;-76
2022/07/12 09:12:59;;;;;;;2.78;2.58;;;;;;;;;;5044032;28;20777;-77
2022/07/12 09:15:27;;;;;;;5.05;2.53;;;;;;;;;;5039059;28;20268;-77
2022/07/12 09:18:18;;;;;;;2.92;2.67;;;;;;;;;;5041900;28;20770;-75
2022/07/12 09:20:52;;;;;;;3.10;2.80;;;;;;;;;;5045161;28;20236;-78
2022/07/12 09:23:20;;;;;;;2.88;2.67;;;;;;;;;;5044286;28;20681;-78
2022/07/12 09:25:50;;;;;;;3.65;3.20;;;;;;;;;;5044273;28;20661;-78
2022/07/12 09:28:18;;;;;;;2.63;2.20;;;;;;;;;;5046799;28;20236;-77
2022/07/12 09:30:50;;;;;;;2.80;2.60;;;;;;;;;;5048556;28;20214;-79
2022/07/12 09:36:12;;;;;;;2.42;2.22;;;;;;;;;;5053618;28;20259;-76
2022/07/12 09:38:53;;;;;;;2.40;2.20;;;;;;;;;;5030719;28;20212;-79
2022/07/12 09:41:21;;;;;;;3.10;2.50;;;;;;;;;;5047389;28;20280;-77
2022/07/12 09:43:49;;;;;;;2.78;2.58;;;;;;;;;;5046872;28;20206;-80
2022/07/12 09:46:17;;;;;;;7.68;6.88;;;;;;;;;;5044946;28;20293;-78
2022/07/12 09:48:45;;;;;;;3.00;2.80;;;;;;;;;;5050091;28;20234;-79
2022/07/12 09:51:17;;;;;;;3.00;2.58;;;;;;;;;;5048822;28;20254;-78
2022/07/12 09:53:46;;;;;;;2.85;2.65;;;;;;;;;;5033872;28;20206;-77
2022/07/12 09:56:14;;;;;;;2.60;2.40;;;;;;;;;;5049628;28;20368;-79
2022/07/12 09:58:51;;;;;;;2.80;2.60;;;;;;;;;;5052131;28;20296;-76
2022/07/12 10:01:19;;;;;;;3.00;2.80;;;;;;;;;;5049761;28;20249;-76
2022/07/12 10:03:47;;;;;;;5.07;3.08;;;;;;;;;;5048091;28;20241;-77
2022/07/12 10:06:17;;;;;;;2.75;2.55;;;;;;;;;;5045511;28;20289;-80
2022/07/12 10:08:44;;;;;;;2.60;2.50;;;;;;;;;;5048206;28;20268;-78
2022/07/12 10:11:13;;;;;;;2.65;2.35;;;;;;;;;;5046591;28;20226;-79
2022/07/12 10:14:01;;;;;;;2.42;2.33;;;;;;;;;;5055715;28;20243;-78
2022/07/12 10:16:28;;;;;;;2.78;2.58;;;;;;;;;;5042125;28;20263;-76
2022/07/12 10:19:15;;;;;;;4.05;2.50;;;;;;;;;;5042711;28;20268;-79
2022/07/12 10:21:48;;;;;;;2.58;2.35;;;;;;;;;;5041857;28;20234;-78
2022/07/12 10:24:31;;;;;;;2.20;2.10;;;;;;;;;;5045304;28;20567;-78
2022/07/12 10:27:20;;;;;;;2.35;2.17;;;;;;;;;;5044152;28;20593;-79
2022/07/12 10:29:48;;;;;;;2.60;2.40;;;;;;;;;;5041260;28;20230;-78
2022/07/12 10:32:26;;;;;;;2.10;2.00;;;;;;;;;;5043893;28;20228;-77
2022/07/12 10:34:59;;;;;;;3.75;3.45;;;;;;;;;;5042129;28;20205;-77
2022/07/12 10:37:26;;;;;;;2.42;2.22;;;;;;;;;;5041645;28;20203;-76
2022/07/12 10:40:13;;;;;;;2.58;2.00;;;;;;;;;;5045548;28;20230;-78
2022/07/12 10:42:41;;;;;;;2.15;2.03;;;;;;;;;;5043237;28;20207;-78
2022/07/12 10:45:12;;;;;;;2.00;1.90;;;;;;;;;;5036317;28;20292;-75
2022/07/12 10:47:56;;;;;;;2.17;1.70;;;;;;;;;;5046901;28;20211;-73
2022/07/12 10:50:42;;;;;;;1.85;1.75;;;;;;;;;;5056456;28;20230;-77
2022/07/12 10:53:28;;;;;;;2.08;1.98;;;;;;;;;;5040712;28;20241;-78
2022/07/12 10:56:13;;;;;;;2.30;2.10;;;;;;;;;;5036478;28;20207;-76
2022/07/12 10:58:54;;;;;;;2.08;1.98;;;;;;;;;;5044487;28;20206;-76
2022/07/12 11:01:32;;;;;;;2.08;1.88;;;;;;;;;;5024375;28;20481;-77
2022/07/12 11:04:07;;;;;;;2.13;1.73;;;;;;;;;;5043972;28;20205;-77
2022/07/12 11:06:36;;;;;;;1.70;1.60;;;;;;;;;;5038431;28;20205;-78
2022/07/12 11:09:04;;;;;;;1.70;1.60;;;;;;;;;;5039322;28;20288;-79
2022/07/12 11:11:40;;;;;;;1.98;1.88;;;;;;;;;;5040380;28;20639;-80
2022/07/12 11:14:08;;;;;;;3.22;1.90;;;;;;;;;;5034865;28;20203;-77
2022/07/12 11:16:35;;;;;;;4.07;1.88;;;;;;;;;;5026107;28;20727;-77
2022/07/12 11:19:02;;;;;;;1.95;1.80;;;;;;;;;;5037174;28;20273;-79
2022/07/12 11:21:37;;;;;;;2.03;1.88;;;;;;;;;;5036264;28;20249;-76
2022/07/12 11:24:15;;;;;;;1.90;1.80;;;;;;;;;;5041308;28;20289;-77
2022/07/12 11:26:42;;;;;;;1.90;1.80;;;;;;;;;;5045739;28;20245;-77
2022/07/12 11:29:12;;;;;;;1.75;1.65;;;;;;;;;;5040314;28;20227;-78
2022/07/12 11:31:39;;;;;;;1.50;1.40;;;;;;;;;;5045043;28;20273;-79
2022/07/12 11:34:06;;;;;;;1.92;1.70;;;;;;;;;;5041722;28;20198;-78
2022/07/12 11:36:34;;;;;;;5.65;1.70;;;;;;;;;;5026332;28;20316;-79
2022/07/12 11:39:01;;;;;;;2.20;1.67;;;;;;;;;;5023818;28;22315;-76
2022/07/12 11:41:28;;;;;;;1.75;1.65;;;;;;;;;;5035571;28;20243;-76
2022/07/12 11:43:55;;;;;;;1.83;1.73;;;;;;;;;;5042572;28;20207;-78
2022/07/12 11:46:23;;;;;;;1.60;1.50;;;;;;;;;;5042454;28;20363;-76
2022/07/12 11:48:50;;;;;;;2.10;1.50;;;;;;;;;;5043983;28;20321;-78
2022/07/12 11:51:17;;;;;;;1.63;1.52;;;;;;;;;;5038447;28;20226;-75
2022/07/12 11:53:53;;;;;;;1.75;1.65;;;;;;;;;;5039708;28;20310;-76
2022/07/12 11:56:31;;;;;;;1.60;1.50;;;;;;;;;;5048338;28;20284;-78
2022/07/12 11:58:58;;;;;;;2.10;1.80;;;;;;;;;;5036099;28;20202;-80
2022/07/12 12:01:26;;;;;;;1.67;1.58;;;;;;;;;;5039347;28;20222;-76
2022/07/12 12:03:53;;;;;;;1.80;1.70;;;;;;;;;;5036103;28;20206;-77
2022/07/12 12:06:20;;;;;;;1.70;1.60;;;;;;;;;;5037739;28;20254;-77
2022/07/12 12:08:51;;;;;;;1.80;1.70;;;;;;;;;;5036935;28;20219;-79
2022/07/12 12:11:18;;;;;;;2.53;1.38;;;;;;;;;;5041190;28;20267;-78
2022/07/12 12:13:57;;;;;;;2.25;1.63;;;;;;;;;;5049527;28;20206;-78
2022/07/12 12:16:24;;;;;;;1.33;1.30;;;;;;;;;;5043696;28;20241;-77
2022/07/12 12:18:51;;;;;;;1.60;1.50;;;;;;;;;;5041672;28;20206;-76
2022/07/12 12:21:26;;;;;;;1.35;1.25;;;;;;;;;;5044183;28;20292;-79
2022/07/12 12:24:08;;;;;;;2.35;1.40;;;;;;;;;;5048512;28;20205;-80
2022/07/12 12:26:36;;;;;;;1.33;1.13;;;;;;;;;;5055487;28;20289;-80
2022/07/12 12:29:03;;;;;;;1.38;1.38;;;;;;;;;;5042404;28;20272;-76
2022/07/12 12:31:30;;;;;;;1.50;1.40;;;;;;;;;;5043464;28;20227;-77
2022/07/12 12:33:58;;;;;;;1.10;1.10;;;;;;;;;;5039303;28;20194;-76
2022/07/12 12:36:26;;;;;;;1.75;1.65;;;;;;;;;;5042291;28;20205;-78
2022/07/12 12:38:58;;;;;;;1.20;1.10;;;;;;;;;;5027762;28;20211;-79
2022/07/12 12:41:26;;;;;;;2.03;1.50;;;;;;;;;;5013626;28;20242;-78
2022/07/12 12:43:58;;;;;;;1.40;1.30;;;;;;;;;;5046060;28;20210;-78
2022/07/12 12:46:45;;;;;;;1.00;1.00;;;;;;;;;;5016035;28;20594;-76
2022/07/12 12:49:13;;;;;;;1.17;1.17;;;;;;;;;;5034500;28;20225;-80
2022/07/12 12:51:52;;;;;;;1.30;1.20;;;;;;;;;;5025431;28;20570;-78
2022/07/12 12:54:33;;;;;;;1.13;1.08;;;;;;;;;;5048673;28;20234;-76
2022/07/12 12:57:00;;;;;;;1.75;1.17;;;;;;;;;;5035416;28;20206;-79
2022/07/12 12:59:28;;;;;;;1.15;1.15;;;;;;;;;;5047472;28;20226;-76
2022/07/12 13:01:55;;;;;;;1.00;1.00;;;;;;;;;;5043236;28;20198;-80
2022/07/12 13:04:22;;;;;;;3.15;1.50;;;;;;;;;;5049801;28;20692;-79
2022/07/12 13:06:50;;;;;;;1.75;1.10;;;;;;;;;;5045951;28;20301;-77
2022/07/12 13:09:21;;;;;;;1.13;1.13;;;;;;;;;;5048522;28;20253;-77
2022/07/12 13:11:49;;;;;;;1.67;1.25;;;;;;;;;;5042060;28;20825;-77
2022/07/12 13:14:16;;;;;;;1.00;1.00;;;;;;;;;;5051855;28;20203;-77
2022/07/12 13:16:44;;;;;;;1.33;1.17;;;;;;;;;;5042932;28;20257;-77
2022/07/12 13:19:11;;;;;;;2.70;1.27;;;;;;;;;;5045701;28;20211;-78
2022/07/12 13:21:38;;;;;;;1.20;1.10;;;;;;;;;;5047928;28;20277;-77
2022/07/12 13:24:06;;;;;;;1.40;1.40;;;;;;;;;;5037443;28;20211;-77
2022/07/12 13:26:33;;;;;;;1.10;1.10;;;;;;;;;;5043654;28;20292;-78
2022/07/12 13:29:00;;;;;;;1.30;1.30;;;;;;;;;;5044028;28;20202;-77
2022/07/12 13:31:27;;;;;;;1.10;1.10;;;;;;;;;;5050520;28;20268;-78
2022/07/12 13:33:55;;;;;;;1.45;1.00;;;;;;;;;;5052862;28;20201;-78
2022/07/12 13:36:23;;;;;;;2.90;1.27;;;;;;;;;;5039871;28;20263;-78
2022/07/12 13:38:50;;;;;;;1.38;1.30;;;;;;;;;;5025749;28;20218;-79
2022/07/12 13:41:17;;;;;;;1.50;1.40;;;;;;;;;;5039785;28;21083;-77
2022/07/12 13:43:45;;;;;;;1.40;1.30;;;;;;;;;;5041047;28;20332;-79
2022/07/12 13:46:13;;;;;;;1.42;1.33;;;;;;;;;;5047823;28;20280;-78
2022/07/12 13:48:40;;;;;;;1.45;1.35;;;;;;;;;;5030950;28;20569;-79
2022/07/12 13:51:08;;;;;;;1.98;1.40;;;;;;;;;;5045918;28;20266;-78
2022/07/12 13:53:55;;;;;;;1.23;1.20;;;;;;;;;;5033651;28;20198;-79
2022/07/12 13:56:25;;;;;;;1.20;1.20;;;;;;;;;;5052203;28;20547;-76
2022/07/12 13:58:59;;;;;;;2.05;1.35;;;;;;;;;;5048107;28;20349;-78
2022/07/12 14:01:27;;;;;;;1.20;1.10;;;;;;;;;;5046717;28;20269;-78
2022/07/12 14:03:55;;;;;;;1.10;1.10;;;;;;;;;;5031894;28;20198;-76
2022/07/12 14:06:23;;;;;;;1.50;1.40;;;;;;;;;;5048796;28;22217;-77
2022/07/12 14:08:51;;;;;;;1.10;1.10;;;;;;;;;;5042708;28;20191;-78
2022/07/12 14:11:20;;;;;;;1.40;1.30;;;;;;;;;;5036329;28;20285;-78
2022/07/12 14:13:48;;;;;;;1.38;1.35;;;;;;;;;;5035341;28;20199;-80
2022/07/12 14:16:15;;;;;;;2.50;1.80;;;;;;;;;;5039229;28;20210;-80
2022/07/12 14:18:43;;;;;;;2.15;1.77;;;;;;;;;;5043907;28;21109;-79
2022/07/12 14:21:10;;;;;;;1.52;1.42;;;;;;;;;;5030195;28;20292;-80
2022/07/12 14:23:37;;;;;;;1.67;1.58;;;;;;;;;;5037444;28;20306;-75
2022/07/12 14:26:05;;;;;;;1.85;1.30;;;;;;;;;;5047176;28;20230;-77
2022/07/12 14:28:36;;;;;;;1.40;1.35;;;;;;;;;;5043963;28;20309;-78
2022/07/12 14:31:04;;;;;;;1.63;1.52;;;;;;;;;;5024862;28;20222;-78
2022/07/12 14:33:32;;;;;;;1.10;1.10;;;;;;;;;;5052252;28;20221;-79
2022/07/12 14:35:59;;;;;;;1.20;1.10;;;;;;;;;;5054548;28;20285;-79
2022/07/12 14:38:27;;;;;;;1.10;1.00;;;;;;;;;;5048267;28;20634;-78
2022/07/12 14:40:54;;;;;;;1.20;1.20;;;;;;;;;;5052313;28;20244;-79
2022/07/12 14:43:21;;;;;;;2.30;1.20;;;;;;;;;;5044904;28;20254;-76
2022/07/12 14:45:48;;;;;;;1.02;1.00;;;;;;;;;;5043508;28;20290;-80
2022/07/12 14:48:16;;;;;;;1.27;1.00;;;;;;;;;;5044694;28;20252;-79
2022/07/12 14:50:43;;;;;;;1.17;1.08;;;;;;;;;;5030435;28;20327;-77
2022/07/12 14:53:13;;;;;;;1.20;1.10;;;;;;;;;;5048611;28;20202;-79
2022/07/12 14:55:40;;;;;;;1.25;1.10;;;;;;;;;;5046418;28;20210;-80
2022/07/12 14:58:08;;;;;;;0.88;0.88;;;;;;;;;;5050386;28;20240;-78
2022/07/12 15:00:36;;;;;;;1.15;1.00;;;;;;;;;;5082329;23;20793;-79
2022/07/12 15:03:03;;;;;;;3.10;0.90;;;;;;;;;;5043649;28;20162;-78